Terminal Aerodrome Forecast
Issued by NWS

Home | Current Version | Previous Version | Graphics & Text | Print | Product List | Glossary On
Versions: 1 2 3 4 5 6 7 8 9 10 11 12 13 14 15 16 17 18 19 20 21 22 23 24 25 26 27 28 29 30 31 32 33 34 35 36 37
000
FTUS43 KGRB 290500
TAFRHI
TAF
KRHI 290520Z 2906/3006 VRB03KT 6SM BR SCT006 OVC018
      TEMPO 2906/2909 2SM -FZDZSN BR BKN006
     FM290900 31007KT 4SM BR BKN005 OVC012
     FM291200 31008G15KT 5SM -SN BKN009 OVC018
     FM291500 32013G22KT P6SM -SN BKN015 BKN028 PROB30 2916/2922 2SM
      -SHSN
     FM300000 32012KT P6SM -SN BKN018 BKN025=

USA.gov is the U.S. government's official web portal to all federal, state and local government web resources and services.